Time;durP1;ratioP1;P1;durP2;ratioP2;P2;SDS_P1;SDS_P2;PMS_P1;PMS_P2;Temp;Humidity;BMP_temperature;BMP_pressure;BME280_temperature;BME280_humidity;BME280_pressure;Samples;Min_cycle;Max_cycle;Signal;HPM_P1;HPM_P2
2022/07/27 00:01:38;;;;;;;50.45;34.95;;;26.20;99.90;;;;;;5064610;28;20024;-64
2022/07/27 00:04:05;;;;;;;61.80;31.38;;;26.20;99.90;;;;;;5065320;28;20029;-63
2022/07/27 00:06:32;;;;;;;50.00;31.35;;;26.20;99.90;;;;;;5060206;28;20029;-64
2022/07/27 00:08:59;;;;;;;46.05;30.55;;;26.30;99.90;;;;;;5054957;28;20032;-65
2022/07/27 00:11:25;;;;;;;55.30;31.15;;;26.30;99.90;;;;;;5054831;28;20036;-64
2022/07/27 00:13:52;;;;;;;52.15;33.33;;;26.30;99.90;;;;;;5054754;28;20060;-64
2022/07/27 00:16:18;;;;;;;47.22;34.20;;;26.20;99.90;;;;;;5054868;28;20048;-64
2022/07/27 00:18:45;;;;;;;54.63;37.47;;;26.20;99.90;;;;;;5054802;28;20478;-64
2022/07/27 00:21:11;;;;;;;61.75;36.17;;;26.20;99.90;;;;;;5054699;28;20025;-64
2022/07/27 00:23:38;;;;;;;57.97;34.00;;;26.20;99.90;;;;;;5053472;28;20354;-64
2022/07/27 00:26:04;;;;;;;44.28;31.50;;;26.20;99.90;;;;;;5054360;28;20122;-63
2022/07/27 00:28:31;;;;;;;58.58;31.75;;;26.20;99.90;;;;;;5054700;28;20128;-63
2022/07/27 00:30:58;;;;;;;45.58;30.52;;;26.10;99.90;;;;;;5054640;28;20100;-64
2022/07/27 00:33:24;;;;;;;45.22;30.13;;;26.20;99.90;;;;;;5054697;28;20457;-62
2022/07/27 00:35:51;;;;;;;42.40;29.80;;;26.30;99.90;;;;;;5054426;28;20021;-63
2022/07/27 00:38:17;;;;;;;38.65;26.25;;;26.40;99.90;;;;;;5054484;28;20506;-63
2022/07/27 00:41:02;;;;;;;45.28;28.33;;;26.40;99.90;;;;;;5054562;28;20021;-62
2022/07/27 00:43:29;;;;;;;38.25;28.48;;;26.40;99.90;;;;;;5054338;28;20021;-64
2022/07/27 00:45:55;;;;;;;41.90;27.20;;;26.30;99.90;;;;;;5054447;28;20025;-63
2022/07/27 00:48:22;;;;;;;35.92;25.30;;;26.40;99.90;;;;;;5054309;28;20021;-64
2022/07/27 00:50:49;;;;;;;38.00;26.05;;;26.50;99.90;;;;;;5054385;28;20025;-64
2022/07/27 00:53:15;;;;;;;39.55;26.30;;;26.50;99.90;;;;;;5054078;28;20047;-64
2022/07/27 00:55:43;;;;;;;42.15;24.90;;;26.50;99.90;;;;;;5054145;28;20021;-63
2022/07/27 00:58:09;;;;;;;38.83;25.50;;;26.60;99.90;;;;;;5054212;28;20021;-64
2022/07/27 01:00:37;;;;;;;41.10;26.02;;;26.60;99.90;;;;;;5054144;28;20040;-62
2022/07/27 01:03:04;;;;;;;35.60;25.08;;;26.60;99.90;;;;;;5053875;28;20028;-64
2022/07/27 01:05:34;;;;;;;38.92;24.63;;;26.70;99.90;;;;;;5053985;28;20045;-66
2022/07/27 01:08:00;;;;;;;34.08;25.27;;;26.70;99.90;;;;;;5054027;28;20050;-65
2022/07/27 01:10:27;;;;;;;36.05;26.10;;;26.80;99.90;;;;;;5053745;28;20441;-63
2022/07/27 01:12:54;;;;;;;36.63;24.92;;;26.90;99.90;;;;;;5055445;28;20021;-63
2022/07/27 01:15:20;;;;;;;45.22;27.38;;;26.90;99.90;;;;;;5062403;28;20021;-64
2022/07/27 01:17:47;;;;;;;42.00;27.95;;;26.90;99.90;;;;;;5063113;28;20373;-64
2022/07/27 01:20:13;;;;;;;54.08;29.75;;;26.90;99.90;;;;;;5070074;28;20051;-65
2022/07/27 01:22:40;;;;;;;44.53;30.27;;;27.00;99.90;;;;;;5073577;28;20555;-64
2022/07/27 01:25:07;;;;;;;42.40;29.70;;;27.00;99.90;;;;;;5073690;28;20164;-64
2022/07/27 01:27:34;;;;;;;54.20;30.05;;;27.00;99.90;;;;;;5073576;28;20036;-64
2022/07/27 01:30:00;;;;;;;38.95;29.48;;;27.10;99.90;;;;;;5069168;28;20381;-64
2022/07/27 01:32:27;;;;;;;36.92;27.83;;;27.10;99.90;;;;;;5069152;28;20032;-63
2022/07/27 01:34:53;;;;;;;40.70;28.10;;;27.20;99.90;;;;;;5073384;28;20040;-64
2022/07/27 01:37:20;;;;;;;39.97;28.35;;;27.20;99.90;;;;;;5072714;28;20100;-64
2022/07/27 01:39:46;;;;;;;41.60;30.92;;;27.30;99.90;;;;;;5073470;28;20070;-64
2022/07/27 01:42:15;;;;;;;40.40;31.27;;;27.40;99.90;;;;;;5073448;28;20538;-64
2022/07/27 01:44:41;;;;;;;43.78;31.60;;;27.40;99.90;;;;;;5073371;28;20427;-65
2022/07/27 01:47:08;;;;;;;38.05;27.90;;;27.50;99.90;;;;;;5073390;28;20016;-64
2022/07/27 01:49:34;;;;;;;44.20;30.27;;;27.50;99.90;;;;;;5073382;28;20017;-64
2022/07/27 01:52:01;;;;;;;41.55;29.92;;;27.60;99.90;;;;;;5073303;28;20554;-64
2022/07/27 01:54:28;;;;;;;49.67;31.52;;;27.60;99.90;;;;;;5073414;28;20051;-65
2022/07/27 01:56:55;;;;;;;38.55;29.10;;;27.70;99.90;;;;;;5073060;28;20024;-67
2022/07/27 01:59:21;;;;;;;35.80;28.50;;;27.70;99.90;;;;;;5073057;28;20071;-65
2022/07/27 02:01:48;;;;;;;52.40;36.08;;;27.70;99.90;;;;;;5073551;28;20020;-64
2022/07/27 02:04:17;;;;;;;53.97;38.00;;;27.80;99.90;;;;;;5073152;28;20103;-64
2022/07/27 02:06:43;;;;;;;50.33;33.33;;;27.80;99.90;;;;;;5073613;28;20031;-65
2022/07/27 02:09:10;;;;;;;45.53;30.13;;;27.80;99.90;;;;;;5073298;28;20027;-63
2022/07/27 02:14:22;;;;;;;54.72;37.95;;;27.90;99.90;;;;;;5073143;28;20052;-65
2022/07/27 02:16:49;;;;;;;70.45;49.17;;;28.00;99.90;;;;;;5073101;28;20067;-64
2022/07/27 02:19:16;;;;;;;58.03;39.35;;;28.10;99.90;;;;;;5073207;28;20028;-65
2022/07/27 02:21:43;;;;;;;47.83;34.65;;;28.20;99.90;;;;;;5073154;28;20048;-65
2022/07/27 02:24:09;;;;;;;54.42;38.80;;;28.30;99.90;;;;;;5073003;28;20380;-65
2022/07/27 02:26:36;;;;;;;51.53;31.65;;;28.40;99.90;;;;;;5073184;28;20012;-64
2022/07/27 02:29:02;;;;;;;50.97;39.53;;;28.50;99.90;;;;;;5073025;28;20020;-64
2022/07/27 02:31:29;;;;;;;60.30;39.22;;;28.60;99.90;;;;;;5072913;28;20539;-64
2022/07/27 02:33:55;;;;;;;34.15;29.73;;;28.70;99.90;;;;;;5073037;28;20154;-64
2022/07/27 02:36:22;;;;;;;38.75;29.50;;;28.70;99.90;;;;;;5072980;28;20025;-64
2022/07/27 02:38:48;;;;;;;38.42;27.30;;;28.90;99.90;;;;;;5072757;28;20063;-64
2022/07/27 02:41:15;;;;;;;41.22;28.00;;;29.00;99.90;;;;;;5072889;28;20029;-64
2022/07/27 02:43:42;;;;;;;30.83;25.52;;;29.10;99.90;;;;;;5072904;28;20020;-64
2022/07/27 02:46:08;;;;;;;38.85;28.13;;;29.10;99.90;;;;;;5072892;28;20029;-65
2022/07/27 02:48:35;;;;;;;38.33;28.23;;;29.20;99.90;;;;;;5075033;28;20111;-63
2022/07/27 02:51:02;;;;;;;40.65;28.95;;;29.30;99.90;;;;;;5076829;28;20021;-63
2022/07/27 02:53:29;;;;;;;32.10;27.65;;;29.50;99.90;;;;;;5076421;28;20576;-63
2022/07/27 02:55:56;;;;;;;32.70;26.02;;;29.50;99.90;;;;;;5063513;28;20032;-63
2022/07/27 02:58:24;;;;;;;37.72;28.27;;;29.60;99.90;;;;;;5059593;28;20035;-64
2022/07/27 03:00:52;;;;;;;32.72;27.55;;;29.60;99.90;;;;;;5070261;28;20078;-65
2022/07/27 03:03:18;;;;;;;32.92;26.58;;;29.70;99.90;;;;;;5059064;28;20057;-65
2022/07/27 03:05:45;;;;;;;45.83;27.48;;;29.60;99.90;;;;;;5056581;28;20025;-65
2022/07/27 03:08:12;;;;;;;39.50;27.08;;;29.70;99.90;;;;;;5056303;28;20474;-63
2022/07/27 03:10:38;;;;;;;37.15;27.77;;;29.80;99.90;;;;;;5056038;28;20222;-64
2022/07/27 03:13:05;;;;;;;32.17;26.67;;;29.80;99.90;;;;;;5056334;28;20028;-65
2022/07/27 03:15:33;;;;;;;39.30;26.08;;;29.80;99.90;;;;;;5056552;28;20024;-65
2022/07/27 03:18:00;;;;;;;33.03;26.30;;;29.90;99.90;;;;;;5055968;28;20028;-64
2022/07/27 03:20:27;;;;;;;41.60;27.52;;;29.90;99.90;;;;;;5056056;28;20421;-63
2022/07/27 03:22:54;;;;;;;32.97;25.70;;;29.90;99.90;;;;;;5055972;28;20505;-62
2022/07/27 03:25:20;;;;;;;36.03;28.13;;;29.80;99.90;;;;;;5055772;28;20032;-64
2022/07/27 03:27:47;;;;;;;38.17;27.73;;;29.80;99.90;;;;;;5056275;28;20028;-64
2022/07/27 03:30:13;;;;;;;34.30;27.48;;;29.80;99.90;;;;;;5056021;28;20031;-64
2022/07/27 03:32:40;;;;;;;33.53;26.20;;;29.90;99.90;;;;;;5056215;28;20064;-67
2022/07/27 03:35:07;;;;;;;32.92;27.48;;;30.00;99.90;;;;;;5055686;28;20049;-67
2022/07/27 03:37:33;;;;;;;32.67;26.35;;;30.00;99.90;;;;;;5055309;28;20036;-67
2022/07/27 03:40:00;;;;;;;36.88;28.10;;;30.00;99.90;;;;;;5055567;28;20054;-67
2022/07/27 03:42:26;;;;;;;39.67;27.63;;;30.00;99.90;;;;;;5055799;28;20104;-67
2022/07/27 03:44:53;;;;;;;33.80;25.83;;;30.00;99.90;;;;;;5055346;28;20032;-67
2022/07/27 03:47:19;;;;;;;40.10;28.58;;;30.00;99.90;;;;;;5055080;28;20477;-67
2022/07/27 03:49:46;;;;;;;35.13;28.08;;;30.00;99.90;;;;;;5055319;28;20406;-68
2022/07/27 03:52:13;;;;;;;39.25;28.67;;;30.00;99.90;;;;;;5055141;28;20132;-67
2022/07/27 03:54:40;;;;;;;40.03;27.85;;;30.10;99.90;;;;;;5055008;28;20032;-67
2022/07/27 03:57:07;;;;;;;37.67;28.67;;;30.00;99.90;;;;;;5055147;28;20041;-67
2022/07/27 03:59:33;;;;;;;36.92;27.00;;;30.00;99.90;;;;;;5054191;28;20029;-68
2022/07/27 04:02:00;;;;;;;34.10;27.08;;;30.00;99.90;;;;;;5054939;28;20028;-68
2022/07/27 04:04:26;;;;;;;33.70;26.77;;;30.00;99.90;;;;;;5055088;28;20545;-68
2022/07/27 04:06:53;;;;;;;36.10;26.45;;;30.10;99.90;;;;;;5055002;28;20048;-68
2022/07/27 04:09:20;;;;;;;36.67;28.25;;;30.20;99.90;;;;;;5054882;28;20025;-69
2022/07/27 04:11:46;;;;;;;33.10;28.40;;;30.20;99.90;;;;;;5054837;28;20033;-68
2022/07/27 04:14:13;;;;;;;39.13;31.25;;;30.20;99.90;;;;;;5054832;28;20070;-68
2022/07/27 04:16:40;;;;;;;39.80;28.67;;;30.20;99.90;;;;;;5054758;28;20552;-69
2022/07/27 04:19:07;;;;;;;33.20;29.00;;;30.40;99.90;;;;;;5054813;28;20037;-68
2022/07/27 04:21:34;;;;;;;43.47;29.95;;;30.50;99.90;;;;;;5054612;28;20025;-68
2022/07/27 04:24:01;;;;;;;34.20;28.38;;;30.50;99.90;;;;;;5054470;28;20093;-69
2022/07/27 04:26:28;;;;;;;39.55;29.10;;;30.50;99.90;;;;;;5054491;28;20090;-69
2022/07/27 04:28:55;;;;;;;43.05;32.08;;;30.50;99.90;;;;;;5054498;28;20367;-68
2022/07/27 04:31:22;;;;;;;38.08;28.83;;;30.60;99.90;;;;;;5054606;28;20025;-67
2022/07/27 04:33:49;;;;;;;37.72;28.42;;;30.60;99.90;;;;;;5054384;28;20435;-68
2022/07/27 04:36:16;;;;;;;38.40;29.30;;;30.60;99.90;;;;;;5054511;28;20028;-68
2022/07/27 04:38:43;;;;;;;37.40;28.02;;;30.60;99.90;;;;;;5054443;28;20025;-67
2022/07/27 04:41:09;;;;;;;45.72;30.25;;;30.70;99.90;;;;;;5054233;28;20029;-68
2022/07/27 04:43:36;;;;;;;42.60;30.23;;;30.80;99.90;;;;;;5054434;28;20071;-68
2022/07/27 04:46:03;;;;;;;31.35;25.92;;;30.70;99.90;;;;;;5054312;28;20033;-68
2022/07/27 04:48:32;;;;;;;47.80;31.85;;;30.80;99.90;;;;;;5063422;28;20095;-69
2022/07/27 04:50:59;;;;;;;42.40;31.40;;;30.80;99.90;;;;;;5074292;28;20024;-68
2022/07/27 04:53:25;;;;;;;37.15;30.17;;;30.80;99.90;;;;;;5074064;28;20051;-68
2022/07/27 04:55:52;;;;;;;43.20;32.28;;;30.90;99.90;;;;;;5073424;28;20055;-68
2022/07/27 04:58:19;;;;;;;32.85;27.08;;;30.90;99.90;;;;;;5065080;28;20466;-67
2022/07/27 05:00:46;;;;;;;32.97;26.83;;;30.90;99.90;;;;;;5062620;28;20082;-68
2022/07/27 05:03:12;;;;;;;34.47;29.40;;;31.00;99.90;;;;;;5061626;28;20017;-67
2022/07/27 05:05:39;;;;;;;34.92;27.30;;;31.00;99.90;;;;;;5058135;28;20021;-67
2022/07/27 05:08:06;;;;;;;34.13;28.15;;;31.00;99.90;;;;;;5062266;28;20440;-68
2022/07/27 05:10:32;;;;;;;36.30;26.95;;;31.00;99.90;;;;;;5064867;28;20090;-67
2022/07/27 05:12:59;;;;;;;30.60;26.85;;;31.10;99.90;;;;;;5063107;28;20020;-69
2022/07/27 05:15:25;;;;;;;37.65;28.02;;;31.10;99.90;;;;;;5064315;28;20025;-68
2022/07/27 05:17:52;;;;;;;34.42;27.40;;;31.20;99.90;;;;;;5062240;28;20063;-66
2022/07/27 05:20:19;;;;;;;32.22;26.00;;;31.20;99.90;;;;;;5063002;28;20019;-67
2022/07/27 05:22:46;;;;;;;34.97;27.52;;;31.30;99.90;;;;;;5063951;28;20055;-67
2022/07/27 05:25:12;;;;;;;32.78;25.75;;;31.40;99.90;;;;;;5062039;28;20532;-65
2022/07/27 05:27:39;;;;;;;33.47;26.02;;;31.50;99.90;;;;;;5060923;28;20094;-66
2022/07/27 05:30:06;;;;;;;33.47;25.38;;;31.60;99.90;;;;;;5063685;28;20024;-67
2022/07/27 05:32:33;;;;;;;35.97;26.30;;;31.70;99.90;;;;;;5061688;28;20032;-67
2022/07/27 05:35:00;;;;;;;31.13;25.80;;;31.80;99.90;;;;;;5058570;28;20017;-67
2022/07/27 05:37:26;;;;;;;32.70;26.67;;;31.80;99.90;;;;;;5057369;28;20053;-66
2022/07/27 05:39:55;;;;;;;33.38;27.55;;;31.70;99.90;;;;;;5053133;28;20408;-66
2022/07/27 05:42:21;;;;;;;43.05;31.17;;;31.70;99.90;;;;;;5054110;28;20028;-66
2022/07/27 05:44:52;;;;;;;45.60;33.38;;;31.60;99.90;;;;;;5073472;28;20104;-66
2022/07/27 05:47:18;;;;;;;57.65;40.42;;;31.50;99.90;;;;;;5073183;28;20119;-66
2022/07/27 05:49:45;;;;;;;42.38;32.67;;;31.70;99.90;;;;;;5073451;28;20027;-66
2022/07/27 05:52:11;;;;;;;37.97;28.65;;;31.70;99.90;;;;;;5073366;28;20530;-66
2022/07/27 05:54:38;;;;;;;33.47;27.27;;;31.70;99.90;;;;;;5072981;28;20044;-66
2022/07/27 05:57:04;;;;;;;34.67;28.60;;;31.70;99.90;;;;;;5073421;28;20028;-66
2022/07/27 05:59:31;;;;;;;36.58;27.92;;;31.80;99.90;;;;;;5073219;28;20020;-66
2022/07/27 06:01:58;;;;;;;37.28;28.38;;;31.90;99.90;;;;;;5073081;28;20039;-66
2022/07/27 06:04:25;;;;;;;37.28;28.45;;;31.90;99.90;;;;;;5073112;28;20021;-66
2022/07/27 06:09:21;;;;;;;34.35;27.63;;;32.00;99.90;;;;;;5073083;28;20023;-67
2022/07/27 06:11:47;;;;;;;35.05;28.70;;;32.00;99.90;;;;;;5073097;28;20034;-67
2022/07/27 06:14:13;;;;;;;30.42;26.15;;;32.00;99.90;;;;;;5073118;28;20025;-67
2022/07/27 06:16:40;;;;;;;40.03;28.98;;;32.00;99.90;;;;;;5073029;28;20025;-68
2022/07/27 06:19:06;;;;;;;42.00;29.52;;;32.00;99.90;;;;;;5073091;28;20497;-67
2022/07/27 06:21:33;;;;;;;38.75;30.00;;;32.00;99.90;;;;;;5073086;28;20107;-66
2022/07/27 06:24:00;;;;;;;35.28;28.48;;;32.10;99.90;;;;;;5076193;28;20012;-66
2022/07/27 06:26:26;;;;;;;36.85;28.27;;;32.10;99.90;;;;;;5077021;28;20021;-66
2022/07/27 06:28:57;;;;;;;34.20;29.35;;;32.00;99.90;;;;;;5077143;28;20441;-66
2022/07/27 06:31:27;;;;;;;37.10;30.05;;;32.10;99.90;;;;;;5077112;28;20113;-66
2022/07/27 06:33:54;;;;;;;37.03;31.10;;;32.20;99.90;;;;;;5077047;28;20428;-66
2022/07/27 06:36:21;;;;;;;38.72;28.70;;;32.10;99.90;;;;;;5076981;28;20028;-66
2022/07/27 06:38:48;;;;;;;36.58;28.48;;;32.10;99.90;;;;;;5076416;28;20028;-66
2022/07/27 06:41:15;;;;;;;38.40;27.48;;;32.10;99.90;;;;;;5076718;28;20016;-66
2022/07/27 06:43:41;;;;;;;33.38;27.05;;;32.10;99.90;;;;;;5076797;28;20027;-67
2022/07/27 06:46:11;;;;;;;36.60;29.67;;;32.00;99.90;;;;;;5076620;28;20385;-68
2022/07/27 06:48:39;;;;;;;37.20;27.40;;;32.00;99.90;;;;;;5076471;28;20100;-66
2022/07/27 06:51:05;;;;;;;30.45;23.95;;;32.00;99.90;;;;;;5076764;28;20023;-67
2022/07/27 06:53:33;;;;;;;32.65;25.17;;;32.00;99.90;;;;;;5076247;28;20037;-66
2022/07/27 06:56:07;;;;;;;34.60;26.08;;;32.00;99.90;;;;;;5076373;28;20112;-67
2022/07/27 06:58:38;;;;;;;32.10;24.65;;;31.90;99.90;;;;;;5076383;28;20064;-66
2022/07/27 07:01:05;;;;;;;34.27;27.23;;;31.90;99.90;;;;;;5076287;28;20074;-66
2022/07/27 07:03:31;;;;;;;34.83;27.60;;;31.80;99.90;;;;;;5076313;28;20250;-67
2022/07/27 07:05:58;;;;;;;33.25;27.40;;;31.80;99.90;;;;;;5076281;28;20020;-67
2022/07/27 07:08:25;;;;;;;34.78;27.33;;;31.70;99.90;;;;;;5076032;28;20036;-66
2022/07/27 07:10:51;;;;;;;42.35;29.20;;;31.60;99.90;;;;;;5075799;28;20081;-66
2022/07/27 07:13:18;;;;;;;38.15;30.73;;;31.50;99.90;;;;;;5075917;28;20078;-66
2022/07/27 07:15:45;;;;;;;41.40;29.85;;;31.40;99.90;;;;;;5075829;28;20028;-66
2022/07/27 07:18:12;;;;;;;42.53;32.97;;;31.30;99.90;;;;;;5076254;28;20376;-66
2022/07/27 07:20:39;;;;;;;42.42;32.13;;;31.20;99.90;;;;;;5075945;28;20020;-66
2022/07/27 07:23:06;;;;;;;37.38;30.80;;;31.10;99.90;;;;;;5075771;28;20020;-66
2022/07/27 07:25:34;;;;;;;44.00;30.60;;;31.10;99.90;;;;;;5075894;28;20017;-65
2022/07/27 07:28:01;;;;;;;42.15;31.10;;;31.10;99.90;;;;;;5075797;28;20021;-66
2022/07/27 07:30:28;;;;;;;38.17;30.88;;;31.10;99.90;;;;;;5068628;28;20075;-66
2022/07/27 07:32:55;;;;;;;38.40;29.98;;;31.10;99.90;;;;;;5064410;28;20047;-64
2022/07/27 07:35:23;;;;;;;35.97;28.63;;;31.00;99.90;;;;;;5062443;28;20489;-65
2022/07/27 07:37:49;;;;;;;36.63;30.17;;;30.90;99.90;;;;;;5066082;28;20021;-67
2022/07/27 07:40:16;;;;;;;37.13;28.63;;;30.90;99.90;;;;;;5067766;28;20089;-68
2022/07/27 07:42:47;;;;;;;38.03;30.48;;;30.80;99.90;;;;;;5065912;28;20039;-66
2022/07/27 07:45:15;;;;;;;39.63;30.05;;;30.70;99.90;;;;;;5060297;28;20488;-66
2022/07/27 07:47:41;;;;;;;38.22;29.73;;;30.70;99.90;;;;;;5060967;28;20025;-66
2022/07/27 07:50:08;;;;;;;36.10;29.27;;;30.70;99.90;;;;;;5060140;28;20039;-66
2022/07/27 07:52:35;;;;;;;37.40;29.42;;;30.60;99.90;;;;;;5060430;28;20045;-66
2022/07/27 07:55:01;;;;;;;37.42;28.63;;;30.60;99.90;;;;;;5065014;28;20380;-67
2022/07/27 07:57:28;;;;;;;36.20;28.38;;;30.60;99.90;;;;;;5063065;28;20021;-64
2022/07/27 07:59:54;;;;;;;39.70;29.27;;;30.60;99.90;;;;;;5064118;28;20477;-66
2022/07/27 08:02:21;;;;;;;36.13;27.70;;;30.50;99.90;;;;;;5064678;28;20017;-67
2022/07/27 08:04:48;;;;;;;32.83;27.80;;;30.50;99.90;;;;;;5062530;28;20017;-67
2022/07/27 08:07:14;;;;;;;35.40;28.17;;;30.50;99.90;;;;;;5064146;28;20008;-67
2022/07/27 08:09:41;;;;;;;45.28;30.55;;;30.60;99.90;;;;;;5064479;28;20052;-68
2022/07/27 08:12:07;;;;;;;42.03;31.58;;;30.50;99.90;;;;;;5062869;28;20029;-67
2022/07/27 08:14:34;;;;;;;41.03;32.53;;;30.50;99.90;;;;;;5066788;28;20377;-67
2022/07/27 08:17:00;;;;;;;43.45;32.67;;;30.50;99.90;;;;;;5064470;28;20102;-67
2022/07/27 08:19:27;;;;;;;41.88;31.38;;;30.50;99.90;;;;;;5054928;28;20032;-68
2022/07/27 08:21:54;;;;;;;39.97;32.60;;;30.50;99.90;;;;;;5062863;28;20047;-69
2022/07/27 08:24:20;;;;;;;39.53;29.13;;;30.40;99.90;;;;;;5064520;28;20477;-66
2022/07/27 08:26:47;;;;;;;37.78;30.17;;;30.30;99.90;;;;;;5062928;28;20032;-67
2022/07/27 08:29:13;;;;;;;41.28;32.25;;;30.30;99.90;;;;;;5063569;28;20017;-67
2022/07/27 08:31:40;;;;;;;37.13;28.95;;;30.30;99.90;;;;;;5064661;28;20439;-70
2022/07/27 08:34:07;;;;;;;36.42;29.63;;;30.30;99.90;;;;;;5064802;28;20542;-67
2022/07/27 08:36:33;;;;;;;43.53;31.42;;;30.30;99.90;;;;;;5062896;28;20025;-67
2022/07/27 08:39:05;;;;;;;40.45;29.75;;;30.30;99.90;;;;;;5064490;28;20032;-68
2022/07/27 08:41:31;;;;;;;48.53;30.55;;;30.30;99.90;;;;;;5070526;28;20032;-68
2022/07/27 08:43:58;;;;;;;44.42;33.10;;;30.40;99.90;;;;;;5069572;28;20484;-68
2022/07/27 08:46:26;;;;;;;58.70;38.35;;;30.40;99.90;;;;;;5053717;28;20096;-66
2022/07/27 08:48:52;;;;;;;71.68;48.60;;;30.30;99.90;;;;;;5054287;28;20104;-70
2022/07/27 08:51:22;;;;;;;59.80;38.22;;;30.30;99.90;;;;;;5054162;28;20021;-68
2022/07/27 08:53:50;;;;;;;40.35;29.92;;;30.30;99.90;;;;;;5054078;28;20048;-69
2022/07/27 08:56:17;;;;;;;40.03;30.45;;;30.30;99.90;;;;;;5054181;28;20067;-69
2022/07/27 08:58:44;;;;;;;39.70;32.80;;;30.30;99.90;;;;;;5054328;28;20029;-69
2022/07/27 09:01:11;;;;;;;39.40;29.23;;;30.30;99.90;;;;;;5054190;28;20029;-68
2022/07/27 09:03:37;;;;;;;39.97;31.48;;;30.30;99.90;;;;;;5053970;28;20457;-68
2022/07/27 09:06:04;;;;;;;40.72;31.27;;;30.40;99.90;;;;;;5056467;28;20016;-68
2022/07/27 09:08:32;;;;;;;43.85;30.55;;;30.30;99.90;;;;;;5053707;28;20041;-68
2022/07/27 09:11:02;;;;;;;35.25;29.35;;;30.30;99.90;;;;;;5071285;28;20497;-68
2022/07/27 09:13:32;;;;;;;38.78;29.45;;;30.20;99.90;;;;;;5073704;28;20025;-68
2022/07/27 09:16:02;;;;;;;39.78;30.15;;;30.20;99.90;;;;;;5073772;28;20108;-68
2022/07/27 09:18:32;;;;;;;39.33;32.53;;;30.20;99.90;;;;;;5073831;28;20048;-66
2022/07/27 09:21:04;;;;;;;54.15;38.38;;;30.20;99.90;;;;;;5074838;28;20020;-67
2022/07/27 09:23:30;;;;;;;48.80;35.08;;;30.10;99.90;;;;;;5075521;28;20051;-66
2022/07/27 09:26:09;;;;;;;51.38;35.50;;;30.10;99.90;;;;;;5074629;28;20017;-66
2022/07/27 09:28:36;;;;;;;63.25;34.38;;;30.00;99.90;;;;;;5073688;28;20021;-67
2022/07/27 09:31:09;;;;;;;50.13;34.67;;;30.00;99.90;;;;;;5073885;28;20496;-69
2022/07/27 09:33:52;;;;;;;46.72;34.47;;;30.00;99.90;;;;;;5074097;28;20024;-67
2022/07/27 09:36:21;;;;;;;50.03;33.65;;;29.90;99.90;;;;;;5073661;28;20078;-69
2022/07/27 09:39:06;;;;;;;43.90;34.00;;;29.80;99.90;;;;;;5073408;28;20056;-69
2022/07/27 09:41:41;;;;;;;54.58;35.53;;;29.90;99.90;;;;;;5073821;28;20021;-70
2022/07/27 09:44:08;;;;;;;53.80;38.38;;;29.80;99.90;;;;;;5073422;28;20067;-71
2022/07/27 09:46:39;;;;;;;56.08;41.22;;;29.80;99.90;;;;;;5072345;28;20020;-71
2022/07/27 09:49:24;;;;;;;51.33;38.05;;;29.80;99.90;;;;;;5073543;28;20024;-70
2022/07/27 09:51:51;;;;;;;53.10;37.75;;;29.70;99.90;;;;;;5073846;28;20051;-70
2022/07/27 09:54:17;;;;;;;57.78;35.85;;;29.70;99.90;;;;;;5073962;28;20044;-70
2022/07/27 09:56:44;;;;;;;58.75;43.33;;;29.70;99.90;;;;;;5074139;28;20069;-68
2022/07/27 09:59:18;;;;;;;61.17;43.95;;;29.70;99.90;;;;;;5070790;28;20025;-68
2022/07/27 10:01:44;;;;;;;56.33;37.72;;;29.70;99.90;;;;;;5057272;28;20100;-68
2022/07/27 10:04:11;;;;;;;50.63;36.90;;;29.70;99.90;;;;;;5068704;28;20150;-70
2022/07/27 10:06:38;;;;;;;50.47;35.90;;;29.70;99.90;;;;;;5064131;28;20018;-69
2022/07/27 10:09:05;;;;;;;48.75;35.38;;;29.70;99.90;;;;;;5059436;28;20075;-68
2022/07/27 10:11:31;;;;;;;51.67;34.78;;;29.70;99.90;;;;;;5052994;28;20432;-69
2022/07/27 10:13:59;;;;;;;63.42;40.00;;;29.70;99.90;;;;;;5053239;28;20028;-69
2022/07/27 10:16:28;;;;;;;65.43;40.90;;;29.70;99.90;;;;;;5053118;28;20021;-70
2022/07/27 10:18:58;;;;;;;45.38;33.13;;;29.70;99.90;;;;;;5052823;28;20029;-70
2022/07/27 10:21:26;;;;;;;50.40;37.42;;;29.70;99.90;;;;;;5053024;28;20048;-68
2022/07/27 10:24:00;;;;;;;66.00;41.85;;;29.60;99.90;;;;;;5051814;28;20386;-68
2022/07/27 10:26:33;;;;;;;162.32;105.85;;;29.60;99.90;;;;;;5056024;28;20104;-68
2022/07/27 10:29:19;;;;;;;129.70;88.78;;;29.60;99.90;;;;;;5063710;28;20025;-69
2022/07/27 10:31:50;;;;;;;188.75;126.63;;;29.60;99.90;;;;;;5063453;28;20016;-69
2022/07/27 10:34:34;;;;;;;83.85;56.58;;;29.60;99.90;;;;;;5062678;28;20035;-68
2022/07/27 10:37:22;;;;;;;139.32;98.15;;;29.60;99.90;;;;;;5062847;28;20029;-70
2022/07/27 10:40:33;;;;;;;76.82;55.08;;;29.60;99.90;;;;;;5062965;28;20082;-68
2022/07/27 10:42:40;;;;;;;97.50;71.13;;;29.60;99.90;;;;;;5067145;28;20070;-68
2022/07/27 10:45:11;;;;;;;93.47;59.05;;;29.50;99.90;;;;;;5065550;28;20100;-69
2022/07/27 10:47:39;;;;;;;76.40;52.30;;;29.50;99.90;;;;;;5064103;28;20054;-66
2022/07/27 10:50:11;;;;;;;96.38;71.45;;;29.40;99.90;;;;;;5065768;28;20016;-70
2022/07/27 10:52:42;;;;;;;61.92;42.20;;;29.40;99.90;;;;;;5063536;28;20048;-69
2022/07/27 10:55:15;;;;;;;66.35;44.35;;;29.40;99.90;;;;;;5063863;28;20053;-70
2022/07/27 10:57:41;;;;;;;69.93;45.03;;;29.50;99.90;;;;;;5063759;28;20389;-70
2022/07/27 11:00:08;;;;;;;63.33;41.88;;;29.50;99.90;;;;;;5064661;28;20025;-69
2022/07/27 11:02:39;;;;;;;65.25;43.70;;;29.50;99.90;;;;;;5062884;28;20021;-70
2022/07/27 11:05:06;;;;;;;53.17;39.75;;;29.40;99.90;;;;;;5064324;28;20028;-68
2022/07/27 11:07:32;;;;;;;52.38;40.03;;;29.30;99.90;;;;;;5062975;28;20028;-69
2022/07/27 11:10:00;;;;;;;75.80;52.08;;;29.40;99.90;;;;;;5068583;28;20045;-69
2022/07/27 11:12:29;;;;;;;71.00;50.13;;;29.40;99.90;;;;;;5064478;28;20029;-71
2022/07/27 11:14:57;;;;;;;80.40;56.40;;;29.40;99.90;;;;;;5068658;28;20029;-69
2022/07/27 11:17:28;;;;;;;67.13;49.10;;;29.40;99.90;;;;;;5066046;28;20415;-74
2022/07/27 11:20:00;;;;;;;61.10;44.17;;;29.30;99.90;;;;;;5065657;28;20021;-69
2022/07/27 11:22:29;;;;;;;66.03;47.97;;;29.30;99.90;;;;;;5064340;28;20104;-69
2022/07/27 11:24:56;;;;;;;80.63;54.85;;;29.30;99.90;;;;;;5064561;28;20288;-69
2022/07/27 11:27:22;;;;;;;77.00;51.65;;;29.40;99.90;;;;;;5065763;28;20373;-72
2022/07/27 11:29:49;;;;;;;69.72;50.58;;;29.40;99.90;;;;;;5070331;28;20398;-69
2022/07/27 11:32:18;;;;;;;65.90;47.42;;;29.30;99.90;;;;;;5075730;28;20025;-70
2022/07/27 11:34:45;;;;;;;118.13;86.22;;;29.30;99.90;;;;;;5075502;28;20025;-71
2022/07/27 11:37:18;;;;;;;87.93;61.05;;;29.30;99.90;;;;;;5075644;28;20123;-70
2022/07/27 11:39:47;;;;;;;96.82;64.50;;;29.30;99.90;;;;;;5075471;28;20039;-70
2022/07/27 11:42:15;;;;;;;82.13;54.63;;;29.20;99.90;;;;;;5075522;28;20020;-68
2022/07/27 11:44:43;;;;;;;88.28;62.83;;;29.20;99.90;;;;;;5075112;28;20104;-70
2022/07/27 11:47:16;;;;;;;72.43;50.17;;;29.20;99.90;;;;;;5075190;28;20021;-70
2022/07/27 11:49:42;;;;;;;65.38;47.33;;;29.10;99.90;;;;;;5075358;28;20028;-70
2022/07/27 11:52:10;;;;;;;63.58;45.10;;;29.20;99.90;;;;;;5075340;28;20046;-71
2022/07/27 11:54:40;;;;;;;73.15;48.00;;;29.20;99.90;;;;;;5074936;28;20052;-71
2022/07/27 11:57:15;;;;;;;64.65;44.92;;;29.20;99.90;;;;;;5075267;28;20099;-71
2022/07/27 11:59:43;;;;;;;65.38;48.80;;;29.10;99.90;;;;;;5075178;28;20469;-70
2022/07/27 12:02:13;;;;;;;65.05;47.28;;;29.10;99.90;;;;;;5074984;28;20461;-70
2022/07/27 12:04:42;;;;;;;73.90;46.85;;;29.10;99.90;;;;;;5075083;28;20443;-70
2022/07/27 12:07:13;;;;;;;73.13;50.85;;;29.10;99.90;;;;;;5074925;28;20465;-71
2022/07/27 12:09:46;;;;;;;64.93;46.97;;;29.10;99.90;;;;;;5074872;28;20473;-71
2022/07/27 12:12:14;;;;;;;62.60;46.53;;;29.00;99.90;;;;;;5074936;28;20052;-71
2022/07/27 12:14:45;;;;;;;75.05;49.03;;;29.00;99.90;;;;;;5074803;28;20028;-70
2022/07/27 12:17:15;;;;;;;87.05;58.10;;;29.00;99.90;;;;;;5074924;28;20052;-70
2022/07/27 12:19:42;;;;;;;72.88;49.90;;;29.00;99.90;;;;;;5074456;28;20430;-69
2022/07/27 12:22:09;;;;;;;72.18;49.53;;;29.00;99.90;;;;;;5074062;28;20475;-70
2022/07/27 12:24:39;;;;;;;82.68;46.25;;;29.00;99.90;;;;;;5074865;28;20029;-69
2022/07/27 12:27:07;;;;;;;69.82;45.97;;;29.00;99.90;;;;;;5074651;28;20044;-71
2022/07/27 12:29:55;;;;;;;70.38;45.67;;;29.00;99.90;;;;;;5069859;28;20037;-71
2022/07/27 12:32:22;;;;;;;70.63;45.90;;;29.10;99.90;;;;;;5074407;28;20099;-71
2022/07/27 12:34:48;;;;;;;68.70;47.50;;;29.10;99.90;;;;;;5074484;28;20652;-70